createdAt,value
2022-07-29T00:00:26.503Z,2.70
2022-07-29T00:05:40.644Z,2.70
2022-07-29T00:10:43.350Z,2.60
2022-07-29T00:15:45.793Z,2.30
2022-07-29T00:20:48.186Z,2.40
2022-07-29T00:25:50.717Z,2.40
2022-07-29T00:30:53.227Z,2.70
2022-07-29T00:35:55.832Z,2.30
2022-07-29T00:40:59.728Z,2.60
2022-07-29T00:46:02.695Z,2.90
2022-07-29T00:51:06.690Z,2.60
2022-07-29T00:56:09.107Z,2.20
2022-07-29T01:01:11.554Z,2.50
2022-07-29T01:06:15.580Z,3.00
2022-07-29T01:11:19.172Z,3.50
2022-07-29T01:16:38.173Z,3.20
2022-07-29T01:21:58.450Z,3.20
2022-07-29T01:27:32.702Z,2.70
2022-07-29T01:32:38.117Z,2.40
2022-07-29T01:37:46.268Z,2.80
2022-07-29T01:42:55.616Z,3.00
2022-07-29T01:48:13.888Z,2.60
2022-07-29T01:53:26.739Z,2.40
2022-07-29T01:58:32.292Z,2.50
2022-07-29T02:03:37.242Z,2.80
2022-07-29T02:08:41.564Z,3.10
2022-07-29T02:13:46.373Z,3.00
2022-07-29T02:18:51.489Z,3.20
2022-07-29T02:23:55.408Z,2.90
2022-07-29T02:29:01.234Z,3.20
2022-07-29T02:39:10.798Z,2.40
2022-07-29T02:44:21.828Z,2.70
2022-07-29T02:49:30.011Z,3.10
2022-07-29T02:54:45.298Z,2.70
2022-07-29T02:59:52.666Z,2.80
2022-07-29T03:04:56.884Z,2.90
2022-07-29T03:10:02.010Z,2.90
2022-07-29T03:15:05.298Z,3.20
2022-07-29T03:20:09.290Z,3.00
2022-07-29T03:25:13.537Z,3.10
2022-07-29T03:30:21.753Z,3.30
2022-07-29T03:35:25.648Z,3.10
2022-07-29T03:40:50.590Z,2.40
2022-07-29T03:45:55.970Z,2.30
2022-07-29T03:50:58.443Z,2.50
2022-07-29T03:56:02.994Z,3.20
2022-07-29T04:01:06.166Z,2.60
2022-07-29T04:06:08.662Z,3.20
2022-07-29T04:11:11.196Z,3.10
2022-07-29T04:16:13.627Z,3.20
2022-07-29T04:21:16.236Z,3.40
2022-07-29T04:26:19.605Z,3.10
2022-07-29T04:31:25.729Z,3.00
2022-07-29T04:36:29.899Z,2.80
2022-07-29T04:41:33.690Z,2.70
2022-07-29T04:46:37.195Z,2.80
2022-07-29T04:51:40.053Z,2.80
2022-07-29T04:56:42.780Z,2.80
2022-07-29T05:01:45.206Z,2.70
2022-07-29T05:06:47.775Z,2.70
2022-07-29T05:11:50.181Z,2.80
2022-07-29T05:16:53.773Z,2.80
2022-07-29T05:21:56.178Z,3.70
2022-07-29T05:26:58.621Z,2.90
2022-07-29T05:32:01.041Z,2.90
2022-07-29T05:37:03.435Z,2.30
2022-07-29T05:42:10.673Z,1.80
2022-07-29T05:47:13.216Z,1.90
2022-07-29T05:52:16.071Z,2.10
2022-07-29T05:57:21.117Z,2.20
2022-07-29T06:02:23.556Z,2.10
2022-07-29T06:07:25.998Z,1.90
2022-07-29T06:12:28.492Z,1.50
2022-07-29T06:17:30.938Z,1.20
2022-07-29T06:22:33.336Z,1.20
2022-07-29T06:27:35.765Z,0.90
2022-07-29T06:32:42.923Z,0.90
2022-07-29T06:37:45.701Z,1.00
2022-07-29T06:42:51.235Z,0.80
2022-07-29T06:47:53.685Z,0.90
2022-07-29T06:52:56.135Z,1.00
2022-07-29T06:57:58.558Z,0.90
2022-07-29T07:03:00.926Z,0.80
2022-07-29T07:08:04.183Z,1.00
2022-07-29T07:13:06.866Z,1.00
2022-07-29T07:18:09.899Z,0.90
2022-07-29T07:23:12.382Z,0.90
2022-07-29T07:28:14.968Z,0.90
2022-07-29T07:33:17.507Z,0.80
2022-07-29T07:38:20.099Z,1.10
2022-07-29T07:43:23.437Z,0.70
2022-07-29T07:48:25.853Z,0.90
2022-07-29T07:53:30.616Z,0.70
2022-07-29T07:58:33.553Z,0.80
2022-07-29T08:03:36.252Z,2.00
2022-07-29T08:08:38.637Z,0.70
2022-07-29T08:13:41.072Z,0.70
2022-07-29T08:18:44.724Z,0.70
2022-07-29T08:23:57.646Z,0.70
2022-07-29T08:29:02.280Z,0.80
2022-07-29T08:34:05.610Z,0.80
2022-07-29T08:39:08.053Z,0.70
2022-07-29T08:44:10.637Z,0.80
2022-07-29T08:49:13.161Z,0.60
2022-07-29T08:54:19.272Z,0.70
2022-07-29T08:59:25.512Z,1.00
2022-07-29T09:04:34.149Z,0.90
2022-07-29T09:09:36.536Z,0.80
2022-07-29T09:14:39.951Z,0.80
2022-07-29T09:19:44.775Z,1.00
2022-07-29T09:24:48.475Z,0.80
2022-07-29T09:30:02.479Z,0.90
2022-07-29T09:35:23.242Z,0.90
2022-07-29T09:40:28.516Z,0.90
2022-07-29T09:45:32.190Z,0.70
2022-07-29T09:50:42.126Z,0.90
2022-07-29T09:55:52.545Z,1.00
2022-07-29T10:00:56.909Z,1.00
2022-07-29T10:11:18.533Z,0.90
2022-07-29T10:16:20.996Z,0.90
2022-07-29T10:21:35.942Z,0.90
2022-07-29T10:26:41.799Z,0.80
2022-07-29T10:32:15.257Z,0.90
2022-07-29T10:37:35.406Z,0.80
2022-07-29T10:42:42.182Z,0.80
2022-07-29T10:47:45.944Z,0.80
2022-07-29T10:52:53.395Z,0.90
2022-07-29T10:58:21.786Z,1.20
2022-07-29T11:03:53.719Z,1.00
2022-07-29T11:09:20.192Z,0.90
2022-07-29T11:14:55.614Z,0.70
2022-07-29T11:20:30.863Z,0.70
2022-07-29T11:25:50.156Z,0.80
2022-07-29T11:30:55.963Z,0.80
2022-07-29T11:36:16.934Z,0.70
2022-07-29T11:41:26.076Z,0.80
2022-07-29T11:46:49.958Z,0.90
2022-07-29T11:51:54.299Z,0.70
2022-07-29T11:56:58.717Z,0.80
2022-07-29T12:02:33.318Z,0.90
2022-07-29T12:07:34.605Z,0.70
2022-07-29T12:12:39.552Z,0.70
2022-07-29T12:17:42.734Z,0.70
2022-07-29T12:22:45.306Z,0.60
2022-07-29T12:27:58.996Z,0.70
2022-07-29T12:33:02.680Z,0.80
2022-07-29T12:38:05.453Z,0.70
2022-07-29T12:43:13.997Z,0.90
2022-07-29T12:48:17.514Z,0.70
2022-07-29T12:58:39.725Z,0.80
2022-07-29T13:04:00.716Z,0.70
2022-07-29T13:09:20.624Z,0.70
2022-07-29T13:14:48.922Z,0.70
2022-07-29T13:20:15.590Z,0.60
2022-07-29T13:25:34.206Z,0.90
2022-07-29T13:30:36.638Z,0.80
2022-07-29T13:35:48.372Z,0.90
2022-07-29T13:40:50.760Z,0.60
2022-07-29T13:45:53.288Z,0.70
2022-07-29T13:50:55.826Z,0.80
2022-07-29T13:55:58.298Z,0.80
2022-07-29T14:01:01.539Z,0.60
2022-07-29T14:11:06.341Z,0.70
2022-07-29T14:16:09.008Z,0.80
2022-07-29T14:21:11.426Z,0.80
2022-07-29T14:26:15.858Z,0.80
2022-07-29T14:31:22.887Z,1.00
2022-07-29T14:36:25.439Z,1.00
2022-07-29T14:41:29.156Z,0.70
2022-07-29T14:46:31.803Z,0.90
2022-07-29T14:51:34.451Z,0.60
2022-07-29T15:01:48.782Z,0.80
2022-07-29T15:06:52.690Z,0.70
2022-07-29T15:11:55.387Z,0.70
2022-07-29T15:16:58.179Z,0.70
2022-07-29T15:22:01.632Z,1.00
2022-07-29T15:27:04.324Z,0.60
2022-07-29T15:32:07.010Z,0.70
2022-07-29T15:37:11.640Z,0.70
2022-07-29T15:42:14.072Z,0.80
2022-07-29T15:47:20.246Z,0.80
2022-07-29T15:52:25.630Z,0.70
2022-07-29T15:57:28.710Z,0.70
2022-07-29T16:02:31.587Z,0.70
2022-07-29T16:07:34.155Z,0.60
2022-07-29T16:12:37.162Z,0.70
2022-07-29T16:17:39.568Z,0.70
2022-07-29T16:22:43.146Z,0.70
2022-07-29T16:27:45.511Z,0.70
2022-07-29T16:32:47.945Z,0.70
2022-07-29T16:42:52.687Z,0.80
2022-07-29T16:48:00.121Z,0.70
2022-07-29T16:53:03.407Z,0.70
2022-07-29T16:58:05.891Z,1.00
2022-07-29T17:03:08.331Z,1.00
2022-07-29T17:08:10.741Z,1.00
2022-07-29T17:13:13.189Z,1.00
2022-07-29T17:18:15.609Z,0.80
2022-07-29T17:23:18.039Z,0.90
2022-07-29T17:28:20.433Z,0.90
2022-07-29T17:33:22.862Z,0.90
2022-07-29T17:38:25.377Z,0.90
2022-07-29T17:43:27.994Z,1.00
2022-07-29T17:48:30.563Z,1.00
2022-07-29T17:53:33.150Z,0.90
2022-07-29T17:58:36.222Z,1.00
2022-07-29T18:03:38.653Z,0.90
2022-07-29T18:08:41.378Z,0.90
2022-07-29T18:13:43.814Z,1.10
2022-07-29T18:18:46.427Z,1.00
2022-07-29T18:23:50.594Z,1.10
2022-07-29T18:28:53.030Z,1.20
2022-07-29T18:33:59.874Z,1.80
2022-07-29T18:39:02.703Z,1.60
2022-07-29T18:44:05.233Z,1.90
2022-07-29T18:49:08.104Z,2.00
2022-07-29T18:54:10.592Z,1.70
2022-07-29T18:59:16.836Z,2.00
2022-07-29T19:04:19.275Z,2.40
2022-07-29T19:09:21.855Z,2.70
2022-07-29T19:14:24.277Z,1.80
2022-07-29T19:19:26.930Z,1.70
2022-07-29T19:24:29.364Z,1.50
2022-07-29T19:29:32.764Z,1.70
2022-07-29T19:34:35.577Z,1.90
2022-07-29T19:39:37.977Z,1.80
2022-07-29T19:44:40.421Z,1.90
2022-07-29T19:49:42.860Z,1.90
2022-07-29T19:54:45.324Z,1.90
2022-07-29T19:59:48.201Z,1.90
2022-07-29T20:04:52.089Z,1.80
2022-07-29T20:09:55.073Z,1.80
2022-07-29T20:14:58.071Z,2.00
2022-07-29T20:20:01.098Z,2.00
2022-07-29T20:25:05.496Z,1.90
2022-07-29T20:30:08.954Z,3.20
2022-07-29T20:35:13.793Z,2.10
2022-07-29T20:40:16.789Z,2.30
2022-07-29T20:45:20.027Z,2.10
2022-07-29T20:50:24.042Z,2.20
2022-07-29T20:55:26.923Z,2.20
2022-07-29T21:00:29.707Z,2.30
2022-07-29T21:05:32.689Z,2.50
2022-07-29T21:10:35.108Z,2.30
2022-07-29T21:15:38.064Z,2.30
2022-07-29T21:20:40.665Z,2.30
2022-07-29T21:25:43.293Z,2.10
2022-07-29T21:30:45.816Z,2.50
2022-07-29T21:36:26.615Z,2.20
2022-07-29T21:42:15.188Z,2.50
2022-07-29T21:47:17.623Z,2.70
2022-07-29T21:52:20.341Z,2.90
2022-07-29T21:57:23.519Z,2.40
2022-07-29T22:02:26.019Z,2.40
2022-07-29T22:07:55.442Z,2.30
2022-07-29T22:12:52.480Z,2.70
2022-07-29T22:17:55.574Z,2.80
2022-07-29T22:22:58.183Z,2.40
2022-07-29T22:28:00.598Z,2.40
2022-07-29T22:33:03.076Z,2.40
2022-07-29T22:38:05.443Z,2.80
2022-07-29T22:43:08.090Z,2.70
2022-07-29T22:48:10.588Z,2.40
2022-07-29T22:53:13.863Z,2.30
2022-07-29T22:58:16.226Z,2.50
2022-07-29T23:03:18.769Z,3.30
2022-07-29T23:08:21.257Z,3.00
2022-07-29T23:13:23.710Z,3.10
2022-07-29T23:18:26.143Z,3.20
2022-07-29T23:23:32.345Z,3.00
2022-07-29T23:28:35.084Z,3.10
2022-07-29T23:33:37.481Z,3.50
2022-07-29T23:38:40.892Z,2.80
2022-07-29T23:43:43.494Z,2.60
2022-07-29T23:48:46.268Z,2.80
2022-07-29T23:53:53.049Z,2.50
2022-07-29T23:58:56.515Z,2.60
